Time;durP1;ratioP1;P1;durP2;ratioP2;P2;SDS_P1;SDS_P2;PMS_P1;PMS_P2;Temp;Humidity;BMP_temperature;BMP_pressure;BME280_temperature;BME280_humidity;BME280_pressure;Samples;Min_cycle;Max_cycle;Signal;HPM_P1;HPM_P2
2023/08/31 00:12:40;;;;;;;1.80;1.52;;;;;;;22.34;49.16;99571.50;41480017;28;20046;-73
2023/08/31 00:32:47;;;;;;;1.70;1.60;;;;;;;22.38;48.94;99578.16;41505476;28;1190529;-74
2023/08/31 00:52:47;;;;;;;2.05;1.55;;;;;;;22.35;48.99;99559.13;41549537;28;20053;-75
2023/08/31 01:13:02;;;;;;;3.72;1.90;;;;;;;22.28;49.67;99593.19;41555992;28;20072;-76
2023/08/31 01:33:03;;;;;;;1.48;1.38;;;;;;;22.14;49.14;99586.59;41546177;28;20041;-74
2023/08/31 01:53:06;;;;;;;1.90;1.30;;;;;;;22.64;48.78;99601.25;41547054;28;20048;-73
2023/08/31 02:13:07;;;;;;;1.75;1.35;;;;;;;22.21;48.91;99586.84;41484333;28;20141;-74
2023/08/31 02:33:07;;;;;;;2.17;1.30;;;;;;;22.19;48.78;99615.16;41547045;28;20496;-75
2023/08/31 02:53:07;;;;;;;3.45;1.50;;;;;;;22.15;48.71;99627.78;41561341;28;20056;-73
2023/08/31 03:13:08;;;;;;;1.40;1.30;;;;;;;22.05;48.82;99625.19;41547890;28;20037;-75
2023/08/31 03:33:08;;;;;;;1.77;1.20;;;;;;;21.82;49.30;99621.22;41559155;28;20045;-75
2023/08/31 03:53:09;;;;;;;2.85;1.20;;;;;;;22.18;48.07;99651.25;41512607;28;20062;-74
2023/08/31 04:13:09;;;;;;;7.43;1.50;;;;;;;21.83;49.12;99642.16;41537912;28;20045;-76
2023/08/31 04:33:11;;;;;;;25.02;8.95;;;;;;;22.41;48.58;99676.47;41533840;28;20060;-71
2023/08/31 04:53:11;;;;;;;8.60;3.25;;;;;;;22.71;48.21;99704.41;41567939;28;20145;-70
2023/08/31 05:13:12;;;;;;;4.82;1.80;;;;;;;22.02;48.92;99724.81;41557212;28;20057;-69
2023/08/31 05:33:12;;;;;;;1.52;1.38;;;;;;;23.42;47.12;99754.94;41557741;28;20049;-74
2023/08/31 05:53:13;;;;;;;3.63;1.67;;;;;;;23.69;48.40;99746.09;41530228;28;20175;-70
2023/08/31 06:13:13;;;;;;;4.80;1.80;;;;;;;23.65;48.85;99748.22;41535436;28;20049;-69
2023/08/31 06:33:17;;;;;;;2.55;1.75;;;;;;;24.06;48.70;99811.25;41542033;28;20046;-70
2023/08/31 06:53:18;;;;;;;2.43;1.80;;;;;;;24.19;48.51;99821.44;41542701;28;21953;-73
2023/08/31 07:13:18;;;;;;;4.40;1.70;;;;;;;24.22;48.29;99834.38;41547153;28;20046;-74
2023/08/31 07:33:18;;;;;;;7.50;2.40;;;;;;;23.06;47.82;99844.59;41524993;28;20064;-73
2023/08/31 07:53:19;;;;;;;7.72;2.10;;;;;;;21.38;47.47;99769.94;41509177;28;20045;-72
2023/08/31 08:13:19;;;;;;;3.55;2.88;;;;;;;22.15;48.54;99888.00;41506972;28;20151;-79
2023/08/31 08:33:20;;;;;;;4.63;2.30;;;;;;;22.43;47.85;99896.13;41604416;28;20042;-73
2023/08/31 08:53:22;;;;;;;3.08;2.20;;;;;;;22.38;47.31;99878.06;41538506;28;20052;-77
2023/08/31 09:13:26;;;;;;;4.05;2.10;;;;;;;22.78;48.05;99929.84;41612081;28;20077;-73
2023/08/31 09:33:27;;;;;;;3.60;1.90;;;;;;;23.22;46.75;99939.09;41609464;28;20100;-74
2023/08/31 09:53:29;;;;;;;3.20;1.80;;;;;;;23.29;43.55;99926.97;41607783;28;20041;-75
2023/08/31 10:13:35;;;;;;;3.03;1.70;;;;;;;23.58;42.63;99907.53;41629146;28;20080;-78
2023/08/31 10:33:45;;;;;;;2.10;1.63;;;;;;;23.56;42.04;99972.91;41594883;28;20408;-75
2023/08/31 10:53:46;;;;;;;2.70;1.70;;;;;;;22.77;44.13;99943.19;41580167;28;20050;-76
2023/08/31 11:13:47;;;;;;;2.53;1.63;;;;;;;23.16;44.34;100006.50;41628810;28;20041;-75
2023/08/31 11:33:47;;;;;;;3.55;1.70;;;;;;;23.17;44.40;100001.09;41563427;28;20050;-76
2023/08/31 11:53:48;;;;;;;1.70;1.60;;;;;;;23.31;44.65;100001.63;41603902;28;20045;-71
2023/08/31 12:13:50;;;;;;;3.97;1.75;;;;;;;23.68;43.73;100006.16;41566802;28;20493;-71
2023/08/31 12:33:50;;;;;;;2.22;1.65;;;;;;;23.95;42.16;100002.72;41559685;28;20041;-71
2023/08/31 12:53:51;;;;;;;3.85;1.50;;;;;;;24.59;40.32;100008.03;41394604;28;20067;-72
2023/08/31 13:13:52;;;;;;;6.28;2.45;;;;;;;25.05;39.94;100005.31;41423163;28;20045;-71
2023/08/31 13:33:52;;;;;;;1.73;1.40;;;;;;;24.31;38.86;99999.31;41439811;28;20046;-74
2023/08/31 13:53:53;;;;;;;3.88;1.80;;;;;;;24.87;40.17;99992.09;41555206;28;20050;-71
2023/08/31 14:14:03;;;;;;;3.15;2.28;;;;;;;24.75;38.41;100007.38;41584578;28;20128;-70
2023/08/31 14:34:04;;;;;;;2.45;1.80;;;;;;;25.08;37.21;100023.56;41565243;28;20052;-71
2023/08/31 14:54:05;;;;;;;1.80;1.50;;;;;;;24.69;37.48;100021.22;41561670;28;20034;-77
2023/08/31 15:14:06;;;;;;;3.28;1.67;;;;;;;25.25;38.27;100036.94;41594052;28;20034;-73
2023/08/31 15:34:10;;;;;;;2.28;1.83;;;;;;;25.13;37.50;100043.47;41614563;28;20409;-74
2023/08/31 15:54:11;;;;;;;2.83;2.00;;;;;;;24.90;37.65;100025.38;41618444;28;20037;-73
2023/08/31 16:14:13;;;;;;;2.85;1.60;;;;;;;25.08;37.28;100055.34;41529786;28;20050;-71
2023/08/31 16:34:14;;;;;;;2.40;1.85;;;;;;;25.26;38.28;100073.03;41579138;28;20123;-78
2023/08/31 16:54:18;;;;;;;11.68;3.20;;;;;;;24.89;39.72;100087.28;41605681;28;20053;-76
2023/08/31 17:14:19;;;;;;;3.00;1.70;;;;;;;24.19;39.23;100112.44;41459370;28;20038;-70
2023/08/31 17:34:20;;;;;;;3.60;3.20;;;;;;;24.06;39.21;100148.94;41526798;28;20291;-73
2023/08/31 17:54:20;;;;;;;10.38;6.70;;;;;;;24.08;39.71;100160.22;41562432;28;20046;-72
2023/08/31 18:14:22;;;;;;;4.00;2.10;;;;;;;24.46;40.48;100198.13;41561366;28;20042;-69
2023/08/31 18:34:23;;;;;;;2.33;1.90;;;;;;;23.97;41.37;100193.81;41530035;28;20057;-69
2023/08/31 18:54:24;;;;;;;7.35;2.70;;;;;;;23.98;41.65;100231.66;41520174;28;20079;-72
2023/08/31 19:14:26;;;;;;;4.25;2.60;;;;;;;23.50;43.67;100259.75;41513341;28;20092;-72
2023/08/31 19:34:32;;;;;;;4.32;2.25;;;;;;;23.56;42.19;100271.56;41513306;28;20079;-74
2023/08/31 19:54:36;;;;;;;3.53;1.90;;;;;;;23.16;41.86;100263.56;41502612;28;20512;-72
2023/08/31 20:14:38;;;;;;;5.60;2.42;;;;;;;23.21;43.00;100283.47;41520689;28;20077;-73
2023/08/31 20:34:45;;;;;;;4.13;2.20;;;;;;;23.09;43.01;100298.53;41538205;28;20138;-75
2023/08/31 20:54:54;;;;;;;2.25;1.75;;;;;;;22.82;42.36;100290.22;41529699;28;20049;-72
2023/08/31 21:14:55;;;;;;;2.28;1.52;;;;;;;22.75;40.27;100304.91;41540745;28;20077;-73
2023/08/31 21:34:55;;;;;;;1.48;1.38;;;;;;;22.86;40.50;100351.53;41548989;28;20102;-73
2023/08/31 21:54:57;;;;;;;3.08;1.40;;;;;;;22.64;40.70;100365.72;41549468;28;20049;-74
2023/08/31 22:15:01;;;;;;;2.90;2.00;;;;;;;22.59;41.80;100375.81;41538834;28;20045;-73
2023/08/31 22:35:03;;;;;;;2.13;1.40;;;;;;;22.53;41.49;100393.84;41495513;28;20060;-74
2023/08/31 22:55:04;;;;;;;3.20;1.80;;;;;;;22.31;41.69;100372.81;41545374;28;20085;-74
2023/08/31 23:15:05;;;;;;;2.15;1.52;;;;;;;22.58;41.71;100396.06;41513708;28;20503;-73
2023/08/31 23:35:06;;;;;;;3.80;1.73;;;;;;;22.93;41.25;100402.03;41519985;28;20053;-73
2023/08/31 23:55:07;;;;;;;2.70;1.50;;;;;;;22.56;42.32;100387.47;41542112;28;20075;-72
